sensor_id;sensor_type;location;lat;lon;timestamp;pressure;altitude;pressure_sealevel;temperature;humidity
55014;BME280;40916;51.632;5.552;2022-08-11T06:54:19;1018.7531575980684;;;20.590501932333005;0
55014;BME280;40916;51.632;5.552;2022-08-11T06:55:20;1018.6881246064426;;;20.628191965445097;0
55014;BME280;40916;51.632;5.552;2022-08-11T06:56:21;1018.7471647215912;;;20.66587209871309;0
55014;BME280;40916;51.632;5.552;2022-08-11T06:57:19;1018.7535064026417;;;20.70354234822788;0
55014;BME280;40916;51.632;5.552;2022-08-11T06:58:20;1018.7447573415163;;;20.741202730045487;0
55014;BME280;40916;51.632;5.552;2022-08-11T06:59:19;1018.7785807199282;;;20.79767483587674;0
55014;BME280;40916;51.632;5.552;2022-08-11T07:00:20;1018.7462925593975;;;20.84158229454833;0
55014;BME280;40916;51.632;5.552;2022-08-11T07:01:22;1018.861012542038;;;20.910552764230356;0
55014;BME280;40916;51.632;5.552;2022-08-11T07:02:21;1018.8294471151278;;;20.948159159166494;0
55014;BME280;40916;51.632;5.552;2022-08-11T07:03:20;1018.8100062824046;;;20.979490362196856;0
55014;BME280;40916;51.632;5.552;2022-08-11T07:04:23;1018.7491264145855;;;21.010814793693815;0
55014;BME280;40916;51.632;5.552;2022-08-11T07:05:21;1018.84380812904;;;21.08596585601397;0
55014;BME280;40916;51.632;5.552;2022-08-11T07:06:24;1018.7724263576057;;;21.111007575990023;0
55014;BME280;40916;51.632;5.552;2022-08-11T07:07:33;1018.7651381478568;;;21.161078092629594;0
55014;BME280;40916;51.632;5.552;2022-08-11T07:08:31;1018.7813516028664;;;21.229896975873487;0
55014;BME280;40916;51.632;5.552;2022-08-11T07:09:26;1018.7578763577486;;;21.286179214255704;0
55014;BME280;40916;51.632;5.552;2022-08-11T07:10:24;1018.7879460438227;;;21.361188526535777;0
55014;BME280;40916;51.632;5.552;2022-08-11T07:11:44;1018.7369021187925;;;21.423666971820243;0
55014;BME280;40916;51.632;5.552;2022-08-11T07:12:30;1018.7009374378258;;;21.461141279006238;0
55014;BME280;40916;51.632;5.552;2022-08-11T07:13:21;1018.7155378215923;;;21.536061255140083;0
55014;BME280;40916;51.632;5.552;2022-08-11T07:14:22;1018.7472730839145;;;21.57350695473504;0
55014;BME280;40916;51.632;5.552;2022-08-11T07:15:21;1018.7862617527464;;;21.635895338763202;0
55014;BME280;40916;51.632;5.552;2022-08-11T07:16:22;1018.7332228992631;;;21.660843315185424;0
55014;BME280;40916;51.632;5.552;2022-08-11T07:17:22;1018.7977361635349;;;21.704492149250434;0
55014;BME280;40916;51.632;5.552;2022-08-11T07:18:22;1018.7641795324375;;;21.748128118000125;0
55014;BME280;40916;51.632;5.552;2022-08-11T07:19:23;1018.8302900598632;;;21.804212640902794;0
55014;BME280;40916;51.632;5.552;2022-08-11T07:20:22;1018.6975043321015;;;21.854047770724637;0
55014;BME280;40916;51.632;5.552;2022-08-11T07:21:23;1018.7613230850369;;;21.922543819323092;0
55014;BME280;40916;51.632;5.552;2022-08-11T07:22:22;1018.7544229203751;;;21.9847856395089;0
55014;BME280;40916;51.632;5.552;2022-08-11T07:23:22;1018.813140914854;;;22.05944158535325;0
55014;BME280;40916;51.632;5.552;2022-08-11T07:24:24;1018.7850562644178;;;22.090537232082895;0
55014;BME280;40916;51.632;5.552;2022-08-11T07:25:22;1018.755361284978;;;22.109191520476408;0
55014;BME280;40916;51.632;5.552;2022-08-11T07:26:23;1018.7154338541695;;;22.121626422363097;0
55014;BME280;40916;51.632;5.552;2022-08-11T07:27:23;1018.7185733597852;;;22.14649313170028;0
55014;BME280;40916;51.632;5.552;2022-08-11T07:28:23;1018.7185733597852;;;22.14649313170028;0
55014;BME280;40916;51.632;5.552;2022-08-11T07:29:23;1018.6382264420637;;;22.152709164759496;0
55014;BME280;40916;51.632;5.552;2022-08-11T07:30:23;1018.7157012145024;;;22.1837854678226;0
55014;BME280;40916;51.632;5.552;2022-08-11T07:31:25;1018.7123624717191;;;22.20242816233182;0
55014;BME280;40916;51.632;5.552;2022-08-11T07:32:24;1018.6659604865098;;;22.208641879689388;0
55014;BME280;40916;51.632;5.552;2022-08-11T07:33:24;1018.7260526089909;;;22.25213071014829;0
55014;BME280;40916;51.632;5.552;2022-08-11T07:34:24;1018.7026755754067;;;22.276975826290588;0
55014;BME280;40916;51.632;5.552;2022-08-11T07:35:27;1018.7037931734718;;;22.332862355863004;0
55014;BME280;40916;51.632;5.552;2022-08-11T07:36:24;1018.7663719510341;;;22.382521888597015;0
55014;BME280;40916;51.632;5.552;2022-08-11T07:37:23;1018.7748733837702;;;22.438369352462743;0
55014;BME280;40916;51.632;5.552;2022-08-11T07:38:25;1018.8021651746209;;;22.494196205469347;0
55014;BME280;40916;51.632;5.552;2022-08-11T07:39:24;1018.7375513057245;;;22.55620192843559;0
55014;BME280;40916;51.632;5.552;2022-08-11T07:40:24;1018.7974540280985;;;22.61818233322738;0
55014;BME280;40916;51.632;5.552;2022-08-11T07:41:24;1018.7222900386345;;;22.655358451126077;0
55014;BME280;40916;51.632;5.552;2022-08-11T07:42:26;1018.79713352465;;;22.71729848542947;0
55014;BME280;40916;51.632;5.552;2022-08-11T07:44:25;1018.797842847334;;;22.828727225425766;0
55014;BME280;40916;51.632;5.552;2022-08-11T07:45:25;1018.7993003671731;;;22.87822505943833;0
55014;BME280;40916;51.632;5.552;2022-08-11T07:46:24;1018.7553563212068;;;22.946258490233312;0
55014;BME280;40916;51.632;5.552;2022-08-11T07:47:25;1018.7881198773891;;;23.026622795393855;0
55014;BME280;40916;51.632;5.552;2022-08-11T07:48:25;1018.7803936395615;;;23.100768001785543;0
55014;BME280;40916;51.632;5.552;2022-08-11T07:49:25;1018.7749901938614;;;23.181051777396917;0
55014;BME280;40916;51.632;5.552;2022-08-11T07:50:25;1018.7695401257104;;;23.24278016677907;0
55014;BME280;40916;51.632;5.552;2022-08-11T07:51:25;1018.79555662409;;;23.298314690088013;0
55014;BME280;40916;51.632;5.552;2022-08-11T07:52:28;1018.7486677353075;;;23.32299031902458;0
55014;BME280;40916;51.632;5.552;2022-08-11T07:53:25;1018.7673946099231;;;23.34149446719993;0
55014;BME280;40916;51.632;5.552;2022-08-11T07:54:25;1018.7758873317358;;;23.372329817316075;0
55014;BME280;40916;51.632;5.552;2022-08-11T07:55:25;1018.7540850148972;;;23.403159053293145;0
55014;BME280;40916;51.632;5.552;2022-08-11T07:56:25;1018.7640985515643;;;23.40932416749309;0
55014;BME280;40916;51.632;5.552;2022-08-11T07:57:26;1018.7625224693785;;;23.433982183096806;0
55014;BME280;40916;51.632;5.552;2022-08-11T07:58:26;1018.776315080995;;;23.44014607701673;0
55014;BME280;40916;51.632;5.552;2022-08-11T07:59:26;1018.763365228626;;;23.464799214678894;0
55014;BME280;40916;51.632;5.552;2022-08-11T08:00:26;1018.7293088100652;;;23.464799214678894;0
55014;BME280;40916;51.632;5.552;2022-08-11T08:01:26;1018.7363359857443;;;23.50177161410072;0
55014;BME280;40916;51.632;5.552;2022-08-11T08:02:26;1018.8073608951698;;;23.557213799407293;0
55014;BME280;40916;51.632;5.552;2022-08-11T08:03:26;1018.8056989405903;;;23.64957378508622;0
55014;BME280;40916;51.632;5.552;2022-08-11T08:04:26;1018.7659256810949;;;23.74187938419238;0
55014;BME280;40916;51.632;5.552;2022-08-11T08:05:27;1018.7050698851033;;;23.858722065080112;0
55014;BME280;40916;51.632;5.552;2022-08-11T08:06:27;1018.7668161509754;;;24.00004752016607;0
55014;BME280;40916;51.632;5.552;2022-08-11T08:07:27;1018.783112636552;;;24.233266061679902;0
55014;BME280;40916;51.632;5.552;2022-08-11T08:08:27;1018.8190141794768;;;24.502883325320134;0
55014;BME280;40916;51.632;5.552;2022-08-11T08:09:27;1018.8522472421399;;;24.75982402990988;0
55014;BME280;40916;51.632;5.552;2022-08-11T08:10:27;1018.7831965522744;;;24.936997698089087;0
55014;BME280;40916;51.632;5.552;2022-08-11T08:11:27;1018.8063540883938;;;25.162767443891468;0
55014;BME280;40916;51.632;5.552;2022-08-11T08:12:27;1018.8361105632501;;;25.400404823760816;0
55014;BME280;40916;51.632;5.552;2022-08-11T08:13:27;1018.8280216797122;;;25.56472267484652;0
55014;BME280;40916;51.632;5.552;2022-08-11T08:14:28;1018.8258499940426;;;25.692412956823276;0
55014;BME280;40916;51.632;5.552;2022-08-11T08:15:28;1018.8295913205595;;;25.850370161197894;0
55014;BME280;40916;51.632;5.552;2022-08-11T08:16:28;1018.8082156120739;;;26.026377429852996;0
55014;BME280;40916;51.632;5.552;2022-08-11T08:17:28;1018.8303343902619;;;26.25672925680525;0
55014;BME280;40916;51.632;5.552;2022-08-11T08:18:28;1018.747833072361;;;26.41415786481524;0
55014;BME280;40916;51.632;5.552;2022-08-11T08:19:28;1018.8341437223937;;;26.613761559693323;0
55014;BME280;40916;51.632;5.552;2022-08-11T08:20:29;1018.8071452295684;;;26.782939779363225;0
55014;BME280;40916;51.632;5.552;2022-08-11T08:21:28;1018.7737825334699;;;26.933851198926668;0
55014;BME280;40916;51.632;5.552;2022-08-11T08:22:28;1018.7719560825958;;;27.10271561160625;0
55014;BME280;40916;51.632;5.552;2022-08-11T08:23:28;1018.7805800289169;;;27.28345966770076;0
55014;BME280;40916;51.632;5.552;2022-08-11T08:24:28;1018.751072335377;;;27.506119919366085;0
55014;BME280;40916;51.632;5.552;2022-08-11T08:25:29;1018.7323709436245;;;27.704470887444465;0
55014;BME280;40916;51.632;5.552;2022-08-11T08:26:29;1018.7681081456923;;;27.722491737255233;0
55014;BME280;40916;51.632;5.552;2022-08-11T08:27:29;1018.7521662331485;;;27.680440228035728;0
55014;BME280;40916;51.632;5.552;2022-08-11T08:28:29;1018.7302848419579;;;27.644388104550742;0
55014;BME280;40916;51.632;5.552;2022-08-11T08:29:31;1018.8111216071436;;;27.620349261287075;0
55014;BME280;40916;51.632;5.552;2022-08-11T08:30:29;1018.7586408271706;;;27.584284846923737;0
55014;BME280;40916;51.632;5.552;2022-08-11T08:31:29;1018.8203408096139;;;27.56023779966179;0
55014;BME280;40916;51.632;5.552;2022-08-11T08:32:29;1018.7551379385825;;;27.57226173399735;0
55014;BME280;40916;51.632;5.552;2022-08-11T08:33:30;1018.7653094348465;;;27.620349261287075;0
55014;BME280;40916;51.632;5.552;2022-08-11T08:34:29;1018.8083820296108;;;27.7164849914795;0
55014;BME280;40916;51.632;5.552;2022-08-11T08:35:30;1018.7114470965986;;;27.764533245847936;0
55014;BME280;40916;51.632;5.552;2022-08-11T08:36:30;1018.7931471960536;;;27.83658118610434;0
55014;BME280;40916;51.632;5.552;2022-08-11T08:37:30;1018.8231576356646;;;27.794556781521834;0
55014;BME280;40916;51.632;5.552;2022-08-11T08:38:30;1018.7660178345358;;;27.728498278936602;0
55014;BME280;40916;51.632;5.552;2022-08-11T08:39:30;1018.7320128437121;;;27.7164849914795;0
55014;BME280;40916;51.632;5.552;2022-08-11T08:40:30;1018.8507401865488;;;27.704470887444465;0
55014;BME280;40916;51.632;5.552;2022-08-11T08:41:31;1018.834388575931;;;27.740510750216668;0
55014;BME280;40916;51.632;5.552;2022-08-11T08:42:31;1018.7362526914263;;;27.824575229839915;0
55014;BME280;40916;51.632;5.552;2022-08-11T08:43:30;1018.7800094906853;;;27.992584817402737;0
55014;BME280;40916;51.632;5.552;2022-08-11T08:44:30;1018.7716930737273;;;28.154444171608112;0
55014;BME280;40916;51.632;5.552;2022-08-11T08:45:31;1018.8205408703205;;;28.3460882573469;0
55014;BME280;40916;51.632;5.552;2022-08-11T08:46:31;1018.7990156698291;;;28.435851188410314;0
55014;BME280;40916;51.632;5.552;2022-08-11T08:47:33;1018.790583253856;;;28.489687526109684;0
55014;BME280;40916;51.632;5.552;2022-08-11T08:48:31;1018.7428765895637;;;28.597312168114456;0
55014;BME280;40916;51.632;5.552;2022-08-11T08:49:31;1018.8053321969538;;;28.746685036791973;0
55014;BME280;40916;51.632;5.552;2022-08-11T08:50:32;1018.8121635792008;;;28.91980433338616;0
55014;BME280;40916;51.632;5.552;2022-08-11T08:51:31;1018.8458710184568;;;29.05102709801151;0
55014;BME280;40916;51.632;5.552;2022-08-11T08:52:33;1018.7513807196123;;;29.146403025390065;0
55014;BME280;40916;51.632;5.552;2022-08-11T08:53:33;1018.8217573199985;;;29.289374519027007;0
55014;BME280;40916;51.632;5.552;2022-08-11T08:54:32;1018.7443070242363;;;29.378675645697072;0
55014;BME280;40916;51.632;5.552;2022-08-11T08:55:31;1018.7476388520507;;;29.48578033770853;0
55014;BME280;40916;51.632;5.552;2022-08-11T08:56:32;1018.7851752279754;;;29.59282347037512;0
55014;BME280;40916;51.632;5.552;2022-08-11T08:57:32;1018.7820967983122;;;29.723570752995414;0
55014;BME280;40916;51.632;5.552;2022-08-11T08:58:32;1018.7436859621038;;;29.836415544102163;0
55014;BME280;40916;51.632;5.552;2022-08-11T08:59:32;1018.7573078275689;;;29.877972877016784;0
55014;BME280;40916;51.632;5.552;2022-08-11T09:00:36;1018.8008397606712;;;29.94919270702956;0
55014;BME280;40916;51.632;5.552;2022-08-11T09:01:36;1018.7833511406412;;;29.97292667893997;0
55014;BME280;40916;51.632;5.552;2022-08-11T09:02:32;1018.807533678989;;;30.044110720175738;0
55014;BME280;40916;51.632;5.552;2022-08-11T09:03:34;1018.8487677674203;;;30.156764103724264;0
55014;BME280;40916;51.632;5.552;2022-08-11T09:04:32;1018.8477907515619;;;30.304890569905858;0
55014;BME280;40916;51.632;5.552;2022-08-11T09:05:32;1018.8392179652366;;;30.352266738497132;0
55014;BME280;40916;51.632;5.552;2022-08-11T09:06:33;1018.7931400274208;;;30.352266738497132;0
55014;BME280;40916;51.632;5.552;2022-08-11T09:07:33;1018.7404341374697;;;30.322658010787684;0
55014;BME280;40916;51.632;5.552;2022-08-11T09:08:33;1018.747965226649;;;30.304890569905858;0
55014;BME280;40916;51.632;5.552;2022-08-11T09:09:33;1018.7720152955305;;;30.2752744908994;0
55014;BME280;40916;51.632;5.552;2022-08-11T09:10:33;1018.7801578150045;;;30.328580123589482;0
55014;BME280;40916;51.632;5.552;2022-08-11T09:11:35;1018.8947684184825;;;30.429227974658602;0
55014;BME280;40916;51.632;5.552;2022-08-11T09:12:33;1018.7901597283361;;;30.512074733830488;0
55014;BME280;40916;51.632;5.552;2022-08-11T09:13:33;1018.8620806749799;;;30.612626337216554;0
55014;BME280;40916;51.632;5.552;2022-08-11T09:14:34;1018.8300081639732;;;30.57122910382391;0
55014;BME280;40916;51.632;5.552;2022-08-11T09:15:33;1018.8458299417218;;;30.38187087872013;0
55014;BME280;40916;51.632;5.552;2022-08-11T09:16:34;1018.8534368451433;;;30.227879190788748;0
55014;BME280;40916;51.632;5.552;2022-08-11T09:17:34;1018.8309299130988;;;30.16269137711413;0
55014;BME280;40916;51.632;5.552;2022-08-11T09:18:34;1018.7624576561783;;;30.216028522479405;0
55014;BME280;40916;51.632;5.552;2022-08-11T09:19:34;1018.7585815863297;;;30.352266738497132;0
55014;BME280;40916;51.632;5.552;2022-08-11T09:20:35;1018.7919463516125;;;30.364108944780355;0
55014;BME280;40916;51.632;5.552;2022-08-11T09:21:34;1018.8139071586075;;;30.39371125153004;0
55014;BME280;40916;51.632;5.552;2022-08-11T09:22:35;1018.7679333906332;;;30.411470436888052;0
55014;BME280;40916;51.632;5.552;2022-08-11T09:23:34;1018.7731856961138;;;30.435146787987136;0
55014;BME280;40916;51.632;5.552;2022-08-11T09:24:35;1018.8542696334256;;;30.541654195263877;0
55014;BME280;40916;51.632;5.552;2022-08-11T09:25:35;1018.7135323293478;;;30.636277903026176;0
55014;BME280;40916;51.632;5.552;2022-08-11T09:26:34;1018.8220759108793;;;30.801757737174032;0
55014;BME280;40916;51.632;5.552;2022-08-11T09:27:35;1018.8430776422404;;;30.937581851855683;0
55014;BME280;40916;51.632;5.552;2022-08-11T09:28:35;1018.8288116647553;;;31.09100799267013;0
55014;BME280;40916;51.632;5.552;2022-08-11T09:29:35;1018.7565236165601;;;31.132294421367007;0
55014;BME280;40916;51.632;5.552;2022-08-11T09:30:35;1018.7353848226621;;;31.17946823951522;0
55014;BME280;40916;51.632;5.552;2022-08-11T09:31:35;1018.7055590073393;;;31.20305088620758;0
55014;BME280;40916;51.632;5.552;2022-08-11T09:32:36;1018.6641753566338;;;31.22663069486204;0
55014;BME280;40916;51.632;5.552;2022-08-11T09:33:35;1018.7074098531398;;;31.250207668136888;0
55014;BME280;40916;51.632;5.552;2022-08-11T09:34:35;1018.7032476462768;;;31.34448726048985;0
55014;BME280;40916;51.632;5.552;2022-08-11T09:35:35;1018.7164744665355;;;31.39161011326071;0
55014;BME280;40916;51.632;5.552;2022-08-11T09:36:36;1018.7527395309268;;;31.43872169857137;0
55014;BME280;40916;51.632;5.552;2022-08-11T09:37:35;1018.6919454550837;;;31.521139923799648;0
55014;BME280;40916;51.632;5.552;2022-08-11T09:38:35;1018.6522416481769;;;31.674111347860965;0
55014;BME280;40916;51.632;5.552;2022-08-11T09:39:36;1018.7208850174874;;;31.87397343624857;0
55014;BME280;40916;51.632;5.552;2022-08-11T09:40:36;1018.6554150297612;;;32.061896506855646;0
55014;BME280;40916;51.632;5.552;2022-08-11T09:41:36;1018.6429537146739;;;32.12058640159993;0
55014;BME280;40916;51.632;5.552;2022-08-11T09:42:36;1018.6600986054004;;;32.10884979230772;0
55014;BME280;40916;51.632;5.552;2022-08-11T09:43:37;1018.6829424920154;;;32.14992493217307;0
55014;BME280;40916;51.632;5.552;2022-08-11T09:44:36;1018.5830943056006;;;32.17339268108066;0
55014;BME280;40916;51.632;5.552;2022-08-11T09:45:36;1018.601670122627;;;32.19099170034969;0
55014;BME280;40916;51.632;5.552;2022-08-11T09:46:36;1018.6268317161765;;;32.26723639111717;0
55014;BME280;40916;51.632;5.552;2022-08-11T09:47:36;1018.6656871683381;;;32.29069050983242;0
55014;BME280;40916;51.632;5.552;2022-08-11T09:48:37;1018.6060704497851;;;32.30241654960062;0
55014;BME280;40916;51.632;5.552;2022-08-11T09:49:36;1018.6878450544713;;;32.37275853371862;0
55014;BME280;40916;51.632;5.552;2022-08-11T09:50:37;1018.7042958007188;;;32.37861926397473;0
55014;BME280;40916;51.632;5.552;2022-08-11T09:51:37;1018.6119796035359;;;32.40206049220875;0
55014;BME280;40916;51.632;5.552;2022-08-11T09:52:37;1018.6402175298306;;;32.19099170034969;0
55014;BME280;40916;51.632;5.552;2022-08-11T09:53:38;1018.5815462018098;;;32.07950527364724;0
55014;BME280;40916;51.632;5.552;2022-08-11T09:54:37;1018.5187382974411;;;31.967956998109912;0
55014;BME280;40916;51.632;5.552;2022-08-11T09:55:37;1018.5727819952936;;;31.926844620038665;0
55014;BME280;40916;51.632;5.552;2022-08-11T09:56:37;1018.5524297403246;;;31.92097073404345;0
55014;BME280;40916;51.632;5.552;2022-08-11T09:57:38;1018.5629165837709;;;31.791701553470872;0
55014;BME280;40916;51.632;5.552;2022-08-11T09:58:37;1018.6277989420413;;;31.76818906780779;0
55014;BME280;40916;51.632;5.552;2022-08-11T09:59:37;1018.5100352151605;;;31.7564317844584;0
55014;BME280;40916;51.632;5.552;2022-08-11T10:00:38;1018.5799546862447;;;31.77994565737108;0
55014;BME280;40916;51.632;5.552;2022-08-11T10:01:38;1018.5282766236402;;;31.87397343624857;0
55014;BME280;40916;51.632;5.552;2022-08-11T10:02:39;1018.5859226776471;;;31.956211465385447;0
55014;BME280;40916;51.632;5.552;2022-08-11T10:03:38;1018.5316675944107;;;32.038415750715956;0
55014;BME280;40916;51.632;5.552;2022-08-11T10:04:39;1018.5234745068319;;;32.12058640159993;0
55014;BME280;40916;51.632;5.552;2022-08-11T10:05:38;1018.5200008312255;;;32.144057567918125;0
55014;BME280;40916;51.632;5.552;2022-08-11T10:06:38;1018.5922064008599;;;32.20272352692513;0
55014;BME280;40916;51.632;5.552;2022-08-11T10:07:38;1018.4855113774923;;;32.2965536146496;0
55014;BME280;40916;51.632;5.552;2022-08-11T10:08:39;1018.5346202014875;;;32.37861926397473;0
55014;BME280;40916;51.632;5.552;2022-08-11T10:09:39;1018.5550846200127;;;32.51922608437262;0
55014;BME280;40916;51.632;5.552;2022-08-11T10:10:39;1018.482465015882;;;32.659735915240624;0
55014;BME280;40916;51.632;5.552;2022-08-11T10:11:39;1018.5135266158434;;;32.77675373716594;0
55014;BME280;40916;51.632;5.552;2022-08-11T10:12:40;1018.4768265283321;;;32.83523762555497;0
55014;BME280;40916;51.632;5.552;2022-08-11T10:13:41;1018.4469127598559;;;32.72410398675976;0
55014;BME280;40916;51.632;5.552;2022-08-11T10:14:40;1018.482465015882;;;32.659735915240624;0
55014;BME280;40916;51.632;5.552;2022-08-11T10:15:39;1018.4419141158355;;;32.64803045407105;0
55014;BME280;40916;51.632;5.552;2022-08-11T10:16:39;1018.5019126582396;;;32.72995462665247;0
55014;BME280;40916;51.632;5.552;2022-08-11T10:17:40;1018.4256899245448;;;32.82938998572898;0
55014;BME280;40916;51.632;5.552;2022-08-11T10:18:40;1018.4168702518109;;;32.893704883198176;0
55014;BME280;40916;51.632;5.552;2022-08-11T10:19:39;1018.3288492585895;;;32.94631122726618;0
55014;BME280;40916;51.632;5.552;2022-08-11T10:20:40;1018.4407107511181;;;32.9696875177801;0
55014;BME280;40916;51.632;5.552;2022-08-11T10:21:40;1018.3038037491846;;;32.93462208865199;0
55014;BME280;40916;51.632;5.552;2022-08-11T10:22:40;1018.4854628121442;;;32.86447333083697;0
55014;BME280;40916;51.632;5.552;2022-08-11T10:23:40;1018.3822802605565;;;32.72995462665247;0
55014;BME280;40916;51.632;5.552;2022-08-11T10:24:40;1018.3503546564388;;;32.677292851165;0
55014;BME280;40916;51.632;5.552;2022-08-11T10:25:40;1018.4497563085849;;;32.694848281016704;0
55014;BME280;40916;51.632;5.552;2022-08-11T10:26:41;1018.3706261389445;;;32.6831448284057;0
55014;BME280;40916;51.632;5.552;2022-08-11T10:27:41;1018.376148163203;;;32.60120190495633;0
55014;BME280;40916;51.632;5.552;2022-08-11T10:28:40;1018.3767866607272;;;32.53679510635551;0
55014;BME280;40916;51.632;5.552;2022-08-11T10:29:40;1018.3949266227661;;;32.507512561195135;0
55014;BME280;40916;51.632;5.552;2022-08-11T10:30:40;1018.3760415638478;;;32.577783603417465;0
55014;BME280;40916;51.632;5.552;2022-08-11T10:31:41;1018.3483286394999;;;32.64217747220477;0
55014;BME280;40916;51.632;5.552;2022-08-11T10:32:41;1018.3520101994782;;;32.59534758143167;0
55014;BME280;40916;51.632;5.552;2022-08-11T10:33:41;1018.3754790551941;;;32.484083492990365;0
55014;BME280;40916;51.632;5.552;2022-08-11T10:34:42;1018.389529384981;;;32.43135822164981;0
55014;BME280;40916;51.632;5.552;2022-08-11T10:35:41;1018.3913563348666;;;32.419639637047226;0
55014;BME280;40916;51.632;5.552;2022-08-11T10:36:42;1018.3174505617185;;;32.460651726914946;0
55014;BME280;40916;51.632;5.552;2022-08-11T10:37:42;1018.3940748262085;;;32.52508259336592;0
55014;BME280;40916;51.632;5.552;2022-08-11T10:38:41;1018.2738604813308;;;32.58949309002605;0
55014;BME280;40916;51.632;5.552;2022-08-11T10:39:41;1018.322135305863;;;32.60120190495633;0
55014;BME280;40916;51.632;5.552;2022-08-11T10:40:44;1018.3606100766987;;;32.577783603417465;0
55014;BME280;40916;51.632;5.552;2022-08-11T10:41:42;1018.3586231679525;;;32.56607344482141;0
55014;BME280;40916;51.632;5.552;2022-08-11T10:42:42;1018.3666367021078;;;32.63632432276614;0
55014;BME280;40916;51.632;5.552;2022-08-11T10:43:42;1018.3465974451058;;;32.74750554450938;0
55014;BME280;40916;51.632;5.552;2022-08-11T10:44:42;1018.3696567770074;;;32.86447333083697;0
55014;BME280;40916;51.632;5.552;2022-08-11T10:45:43;1018.2662314813857;;;32.917087138180804;0
55014;BME280;40916;51.632;5.552;2022-08-11T10:46:42;1018.2929334911024;;;32.98721799848403;0
55014;BME280;40916;51.632;5.552;2022-08-11T10:47:42;1018.3634788930506;;;33.11572945986238;0
55014;BME280;40916;51.632;5.552;2022-08-11T10:48:42;1018.3641171283039;;;33.244161307854185;0
55014;BME280;40916;51.632;5.552;2022-08-11T10:49:42;1018.3518778868141;;;33.366681443603966;0
55014;BME280;40916;51.632;5.552;2022-08-11T10:50:44;1018.3116453071963;;;33.407505509187764;0
55014;BME280;40916;51.632;5.552;2022-08-11T10:51:43;1018.2426328955515;;;33.48912974716082;0
55014;BME280;40916;51.632;5.552;2022-08-11T10:52:43;1018.343433263096;;;33.62315777955961;0
55014;BME280;40916;51.632;5.552;2022-08-11T10:53:44;1018.2418922153328;;;33.66975620626137;0
55014;BME280;40916;51.632;5.552;2022-08-11T10:54:43;1018.3302326628226;;;33.55906808703004;0
55014;BME280;40916;51.632;5.552;2022-08-11T10:55:43;1018.2909286923699;;;33.37251394132959;0
55014;BME280;40916;51.632;5.552;2022-08-11T10:56:43;1018.3361939503042;;;33.314181629821604;0
55014;BME280;40916;51.632;5.552;2022-08-11T10:57:43;1018.3664540260224;;;33.360848782993955;0
55014;BME280;40916;51.632;5.552;2022-08-11T10:58:43;1018.2615040671038;;;33.45998188628386;0
55014;BME280;40916;51.632;5.552;2022-08-11T10:59:43;1018.2267462463986;;;33.51244511770003;0
55014;BME280;40916;51.632;5.552;2022-08-11T11:00:43;1018.2052679319892;;;33.52410183105949;0
55014;BME280;40916;51.632;5.552;2022-08-11T11:01:44;1018.2223802381254;;;33.430829968099594;0
55014;BME280;40916;51.632;5.552;2022-08-11T11:02:44;1018.1941170452247;;;33.32001559484327;0
55014;BME280;40916;51.632;5.552;2022-08-11T11:03:44;1018.2160371465426;;;33.18579303902415;0
55014;BME280;40916;51.632;5.552;2022-08-11T11:04:56;1018.1369728499202;;;33.17411741797781;0
55014;BME280;40916;51.632;5.552;2022-08-11T11:05:44;1018.2116556586072;;;33.232488964611;0
55014;BME280;40916;51.632;5.552;2022-08-11T11:06:48;1018.1855039281668;;;33.314181629821604;0
55014;BME280;40916;51.632;5.552;2022-08-11T11:07:47;1018.1330931744412;;;33.45415182737927;0
55014;BME280;40916;51.632;5.552;2022-08-11T11:08:45;1018.233586764851;;;33.55906808703004;0
55014;BME280;40916;51.632;5.552;2022-08-11T11:09:46;1018.1677615685009;;;33.61150656098613;0